Flight Track Log - Related Links

Times and Time Zones

All times are in EDT time to prevent confusion due to time zone crossing. See the UAL407 flight status page for this flight to view local times or setup timezone preferences in your user account.

Time Position Orientation Groundspeed Altitude Reporting Facility
EDT Latitude Longitude Course Direction KTS MPH feet Rate Location/Type
Mon 10:58:01 PM 42.0333 -87.9667 261° West 195 224 2,700  Level Chicago TRACON
Mon 10:58:49 PM 42.0833 -88.0000 334° Northwest 237 273 4,100 2,172 Climbing Chicago TRACON
Mon 11:00:00 PM 41.9135 -88.4935 261° West  Level FlightAware Approximate
Mon 11:00:55 PM 42.0875 -88.1542 272° West 265 305 9,000  Level Chicago Center
Mon 11:01:00 PM 41.8960 -88.6431 261° West  Level FlightAware Approximate
Mon 11:01:56 PM 42.0425 -88.2644 241° Southwest 281 323 11,600  Level Chicago Center
Mon 11:02:00 PM 41.8785 -88.7926 261° West  Level FlightAware Approximate
Mon 11:02:57 PM 42.0011 -88.3769 244° Southwest 330 380 12,500  Level Chicago Center
Mon 11:03:00 PM 41.8614 -88.9422 261° West  Level FlightAware Approximate
Mon 11:03:58 PM 41.9703 -88.5081 252° West 367 422 14,400  Level Chicago Center
Mon 11:04:59 PM 41.9450 -88.6389 255° West 365 420 16,900 1,869 Climbing Chicago Center
Mon 11:06:00 PM 41.9319 -88.7744 263° West 367 422 18,200 1,180 Climbing Chicago Center
Mon 11:07:01 PM 41.9181 -88.9183 263° West 388 447 19,300 1,279 Climbing Chicago Center
Mon 11:08:02 PM 41.9019 -89.0708 262° West 410 472 20,800 1,623 Climbing Chicago Center
Mon 11:09:03 PM 41.8825 -89.2567 262° West 422 486 22,600 1,426 Climbing Chicago Center
Mon 11:10:04 PM 41.8686 -89.4125 263° West 424 488 23,700 1,073 Climbing Chicago Center
Mon 11:11:06 PM 41.8589 -89.5697 265° West 428 493 24,800 976 Climbing Chicago Center
Mon 11:12:07 PM 41.8578 -89.7297 270° West 433 498 25,700 836 Climbing Chicago Center
Mon 11:13:08 PM 41.8531 -89.8939 268° West 441 507 26,500 836 Climbing Chicago Center
Mon 11:14:09 PM 41.8531 -90.0453 270° West 449 517 27,400 885 Climbing Chicago Center
Mon 11:15:10 PM 41.8497 -90.2450 269° West 451 519 28,300 1,033 Climbing Chicago Center
Mon 11:16:11 PM 41.8444 -90.4158 268° West 458 527 29,500 1,131 Climbing Chicago Center
Mon 11:17:12 PM 41.8403 -90.5819 268° West 453 521 30,600 984 Climbing Chicago Center
Mon 11:18:13 PM 41.8336 -90.7511 267° West 455 524 31,500 934 Climbing Chicago Center
Mon 11:19:14 PM 41.8294 -90.9153 268° West 446 513 32,500 885 Climbing Chicago Center
Mon 11:20:15 PM 41.8247 -91.0817 268° West 447 514 33,300 738 Climbing Chicago Center
Mon 11:21:16 PM 41.8194 -91.2456 268° West 444 511 34,000 344 Climbing Chicago Center
Mon 11:22:17 PM 41.8147 -91.4061 268° West 438 504 34,000  Level Chicago Center
Mon 11:23:18 PM 41.8092 -91.5681 267° West 437 503 34,000  Level Chicago Center
Mon 11:24:18 PM 41.8031 -91.7322 267° West 440 506 34,000  Level Chicago Center
Mon 11:25:20 PM 41.7958 -91.9278 267° West 440 506 34,000  Level Chicago Center
Mon 11:26:20 PM 41.7900 -92.0914 267° West 442 509 34,000  Level Chicago Center
Mon 11:27:21 PM 41.7833 -92.2556 267° West 442 509 34,000  Level Chicago Center
Mon 11:28:22 PM 41.7769 -92.4194 267° West 443 510 34,000  Level Chicago Center
Mon 11:29:23 PM 41.7697 -92.5856 267° West 446 513 34,000  Level Chicago Center
Mon 11:29:48 PM 41.7669 -92.6528 267° West 446 513 34,000  Level Minneapolis Center
Mon 11:30:48 PM 41.7606 -92.8042 267° West 445 512 34,000  Level Minneapolis Center
Mon 11:31:49 PM 41.7514 -92.9997 266° West 443 510 34,000  Level Minneapolis Center
Mon 11:32:50 PM 41.7436 -93.1639 266° West 445 512 34,000  Level Minneapolis Center
Mon 11:33:51 PM 41.7356 -93.3311 266° West 451 519 34,000  Level Minneapolis Center
Mon 11:34:52 PM 41.7275 -93.4944 266° West 448 516 34,000  Level Minneapolis Center
Mon 11:35:53 PM 41.7183 -93.6544 266° West 439 505 34,000 -49 Level Minneapolis Center
Mon 11:36:54 PM 41.7106 -93.8175 266° West 443 510 33,900  Descending Minneapolis Center
Mon 11:37:55 PM 41.7019 -93.9864 266° West 444 511 34,000 49 Climbing Minneapolis Center
Mon 11:38:56 PM 41.6931 -94.1531 266° West 448 516 34,000  Level Minneapolis Center
Mon 11:39:56 PM 41.6825 -94.3172 265° West 446 513 34,000  Level Minneapolis Center
Mon 11:40:57 PM 41.6733 -94.4836 266° West 448 516 34,000  Level Minneapolis Center
Mon 11:41:58 PM 41.6633 -94.6500 265° West 448 516 34,000  Level Minneapolis Center
Mon 11:42:59 PM 41.6522 -94.8164 265° West 447 514 34,000  Level Minneapolis Center
Mon 11:44:00 PM 41.6408 -95.0158 266° West 448 516 34,000  Level Minneapolis Center
Mon 11:45:01 PM 41.6294 -95.1822 265° West 452 520 34,000  Level Minneapolis Center
Mon 11:46:01 PM 41.6189 -95.3483 265° West 450 518 34,000  Level Minneapolis Center
Mon 11:47:02 PM 41.6075 -95.5136 265° West 449 517 34,000  Level Minneapolis Center
Mon 11:48:03 PM 41.5981 -95.6750 266° West 452 520 34,000  Level Minneapolis Center
Mon 11:49:04 PM 41.5853 -95.8433 264° West 455 524 34,000  Level Minneapolis Center
Mon 11:50:04 PM 41.5725 -96.0100 264° West 453 521 34,000  Level Minneapolis Center
Mon 11:51:05 PM 41.5614 -96.1764 265° West 451 519 34,000  Level Minneapolis Center
Mon 11:52:06 PM 41.5500 -96.3433 265° West 452 520 34,000  Level Minneapolis Center
Mon 11:53:07 PM 41.5342 -96.5069 263° West 456 525 34,000  Level Minneapolis Center
Mon 11:54:08 PM 41.5183 -96.7053 264° West 454 522 34,000  Level Minneapolis Center
Mon 11:55:08 PM 41.5044 -96.8719 264° West 453 521 34,000  Level Minneapolis Center
Mon 11:56:09 PM 41.4919 -97.0381 264° West 453 521 34,000  Level Minneapolis Center
Mon 11:57:10 PM 41.4775 -97.2050 263° West 453 521 34,000  Level Minneapolis Center
Mon 11:58:10 PM 41.4639 -97.3706 264° West 451 519 34,000  Level Minneapolis Center
Mon 11:59:11 PM 41.4486 -97.5369 263° West 453 521 34,000  Level Minneapolis Center
Tue 12:00:12 AM 41.4356 -97.7042 264° West 454 522 34,000  Level Minneapolis Center
Tue 12:01:13 AM 41.4208 -97.8722 263° West 457 526 34,000  Level Minneapolis Center
Tue 12:02:13 AM 41.4047 -98.0411 263° West 459 528 34,000  Level Minneapolis Center
Tue 12:03:14 AM 41.3886 -98.2161 263° West 458 527 34,000  Level Minneapolis Center
Tue 12:04:15 AM 41.3744 -98.3811 264° West 454 522 34,000  Level Minneapolis Center
Tue 12:05:15 AM 41.3672 -98.5408 267° West 452 520 34,000  Level Minneapolis Center
Tue 12:06:16 AM 41.3606 -98.7069 267° West 451 519 34,000  Level Minneapolis Center
Tue 12:07:16 AM 41.3539 -98.8736 267° West 451 519 34,000  Level Minneapolis Center
Tue 12:08:08 AM 41.3469 -99.0408 267° West 454 522 34,000  Level Denver Center
Tue 12:09:09 AM 41.3394 -99.2072 267° West 454 522 34,000 49 Level Denver Center
Tue 12:10:10 AM 41.3314 -99.3728 266° West 452 520 34,100 393 Climbing Denver Center
Tue 12:11:11 AM 41.3231 -99.5300 266° West 450 518 34,800 738 Climbing Denver Center
Tue 12:12:12 AM 41.3144 -99.7147 267° West 449 517 35,600 585 Climbing Denver Center
Tue 12:13:14 AM 41.3061 -99.8714 266° West 446 513 36,000 195 Climbing Denver Center
Tue 12:14:15 AM 41.2981 -100.0283 266° West 446 513 36,000  Level Denver Center
Tue 12:15:16 AM 41.2875 -100.2111 266° West 446 513 36,000  Level Denver Center
Tue 12:16:17 AM 41.2781 -100.3686 265° West 448 516 36,000  Level Denver Center
Tue 12:17:18 AM 41.2675 -100.5506 266° West 446 513 36,000  Level Denver Center
Tue 12:18:19 AM 41.2572 -100.7058 265° West 445 512 36,000  Level Denver Center
Tue 12:19:20 AM 41.2486 -100.8625 266° West 446 513 36,000  Level Denver Center
Tue 12:20:21 AM 41.2375 -101.0456 265° West 447 514 36,000  Level Denver Center
Tue 12:21:23 AM 41.2261 -101.2008 264° West 445 512 36,000  Level Denver Center
Tue 12:22:36 AM 41.2153 -101.3833 266° West 445 512 36,000  Level Denver Center
Tue 12:23:37 AM 41.2025 -101.5667 265° West 448 516 36,000  Level Denver Center
Tue 12:24:38 AM 41.1908 -101.7492 265° West 446 513 36,000  Level Denver Center
Tue 12:25:39 AM 41.1794 -101.9056 265° West 445 512 36,000  Level Denver Center
Tue 12:26:40 AM 41.1672 -102.0869 265° West 443 510 36,000  Level Denver Center
Tue 12:27:41 AM 41.1553 -102.2422 264° West 443 510 36,000  Level Denver Center
Tue 12:28:42 AM 41.1417 -102.3983 263° West 445 512 36,000  Level Denver Center
Tue 12:29:43 AM 41.1286 -102.5803 265° West 445 512 36,000  Level Denver Center
Tue 12:30:44 AM 41.1172 -102.7350 264° West 442 509 36,000  Level Denver Center
Tue 12:31:45 AM 41.1033 -102.8922 263° West 448 516 36,000  Level Denver Center
Tue 12:32:46 AM 41.1044 -103.0775 271° West 446 513 36,000  Level Denver Center
Tue 12:33:47 AM 41.1206 -103.2339 278° West 449 517 36,000  Level Denver Center
Tue 12:34:48 AM 41.1358 -103.3908 277° West 448 516 36,000  Level Denver Center
Tue 12:35:49 AM 41.1533 -103.5744 277° West 449 517 36,000  Level Denver Center
Tue 12:36:50 AM 41.1681 -103.7322 277° West 450 518 36,000  Level Denver Center
Tue 12:37:51 AM 41.1833 -103.8894 277° West 450 518 36,000  Level Denver Center
Tue 12:38:52 AM 41.1997 -104.0733 277° West 449 517 36,000  Level Denver Center
Tue 12:39:52 AM 41.2133 -104.2314 277° West 449 517 36,000  Level Denver Center
Tue 12:40:53 AM 41.2272 -104.3897 277° West 450 518 36,000  Level Denver Center
Tue 12:41:54 AM 41.2439 -104.5728 277° West 447 514 36,000  Level Denver Center
Tue 12:42:55 AM 41.2569 -104.7289 276° West 445 512 36,000  Level Denver Center
Tue 12:43:55 AM 41.2708 -104.8864 277° West 447 514 36,000  Level Denver Center
Tue 12:44:56 AM 41.2858 -105.0708 276° West 448 516 36,000  Level Denver Center
Tue 12:45:57 AM 41.2981 -105.2289 276° West 449 517 36,000  Level Denver Center
Tue 12:46:57 AM 41.3108 -105.3867 276° West 449 517 36,000  Level Denver Center
Tue 12:47:58 AM 41.3253 -105.5683 276° West 444 511 36,000  Level Denver Center
Tue 12:48:58 AM 41.3433 -105.7256 279° West 446 513 36,000  Level Denver Center
Tue 12:49:59 AM 41.3861 -105.8772 291° West 456 525 36,000  Level Denver Center
Tue 12:51:00 AM 41.4322 -106.0256 293° West 453 521 36,000  Level Denver Center
Tue 12:52:00 AM 41.4850 -106.1969 292° West 446 513 36,000  Level Denver Center
Tue 12:53:01 AM 41.5311 -106.3464 292° West 452 520 36,000  Level Denver Center
Tue 12:54:01 AM 41.5739 -106.4947 291° West 448 516 36,000  Level Denver Center
Tue 12:55:02 AM 41.6300 -106.6719 293° West 452 520 36,000  Level Denver Center
Tue 12:56:02 AM 41.6742 -106.8189 292° West 448 516 36,000  Level Denver Center
Tue 12:57:03 AM 41.7186 -106.9653 292° West 447 514 36,000  Level Denver Center
Tue 12:58:03 AM 41.7611 -107.1094 292° West 440 506 36,000  Level Denver Center
Tue 12:59:04 AM 41.8117 -107.2781 292° West 436 502 36,000  Level Denver Center
Tue 01:00:04 AM 41.8547 -107.4214 292° West 435 501 36,000  Level Denver Center
Tue 01:01:05 AM 41.8972 -107.5658 292° West 436 502 36,000  Level Denver Center
Tue 01:01:47 AM 41.9292 -107.6844 290° West 430 495 36,000  Level Salt Lake Center
Tue 01:02:48 AM 41.9722 -107.8294 292° West 436 502 36,000  Level Salt Lake Center
Tue 01:03:49 AM 42.0214 -107.9992 291° West 437 503 36,000  Level Salt Lake Center
Tue 01:04:50 AM 42.0639 -108.1472 291° West 441 507 36,000  Level Salt Lake Center
Tue 01:05:50 AM 42.1064 -108.2956 291° West 445 512 36,000  Level Salt Lake Center
Tue 01:06:51 AM 42.1547 -108.4664 291° West 441 507 36,000  Level Salt Lake Center
Tue 01:07:52 AM 42.1967 -108.6139 291° West 441 507 36,000  Level Salt Lake Center
Tue 01:08:53 AM 42.2364 -108.7606 290° West 438 504 36,000  Level Salt Lake Center
Tue 01:09:53 AM 42.2828 -108.9317 290° West 437 503 36,000  Level Salt Lake Center
Tue 01:10:54 AM 42.3239 -109.0803 291° West 442 509 36,000  Level Salt Lake Center
Tue 01:11:55 AM 42.3644 -109.2319 290° West 448 516 36,000  Level Salt Lake Center
Tue 01:12:55 AM 42.4119 -109.4056 290° West 444 511 36,000  Level Salt Lake Center
Tue 01:13:56 AM 42.4528 -109.5556 290° West 445 512 36,000  Level Salt Lake Center
Tue 01:14:56 AM 42.4928 -109.7047 290° West 444 511 36,000  Level Salt Lake Center
Tue 01:15:57 AM 42.5389 -109.8758 290° West 437 503 36,000  Level Salt Lake Center
Tue 01:16:58 AM 42.5781 -110.0233 290° West 435 501 36,000  Level Salt Lake Center
Tue 01:17:58 AM 42.6158 -110.1681 290° West 428 493 36,000  Level Salt Lake Center
Tue 01:18:59 AM 42.6592 -110.3367 289° West 424 488 36,000  Level Salt Lake Center
Tue 01:20:00 AM 42.6972 -110.4817 290° West 425 489 36,000  Level Salt Lake Center
Tue 01:21:00 AM 42.7367 -110.6344 289° West 428 493 36,000  Level Salt Lake Center
Tue 01:22:01 AM 42.7814 -110.8058 290° West 432 497 36,000  Level Salt Lake Center
Tue 01:23:02 AM 42.8189 -110.9528 289° West 431 496 36,000  Level Salt Lake Center
Tue 01:24:02 AM 42.8561 -111.0981 289° West 426 490 36,000 -50 Level Salt Lake Center
Tue 01:25:03 AM 42.8928 -111.2447 289° West 426 490 35,900  Descending Salt Lake Center
Tue 01:26:03 AM 42.9364 -111.4158 289° West 428 493 36,000 50 Climbing Salt Lake Center
Tue 01:27:04 AM 42.9722 -111.5625 289° West 426 490 36,000  Level Salt Lake Center
Tue 01:28:05 AM 43.0069 -111.7053 288° West 417 480 36,000 -50 Level Salt Lake Center
Tue 01:29:05 AM 43.0483 -111.8697 289° West 410 472 35,900 -50 Descending Salt Lake Center
Tue 01:30:06 AM 43.0836 -112.0117 289° West 411 473 35,900 50 Level Salt Lake Center
Tue 01:31:06 AM 43.1178 -112.1542 288° West 413 475 36,000 50 Climbing Salt Lake Center
Tue 01:32:07 AM 43.1569 -112.3214 288° West 413 475 36,000  Level Salt Lake Center
Tue 01:33:08 AM 43.1917 -112.4650 288° West 414 476 36,000  Level Salt Lake Center
Tue 01:34:08 AM 43.2264 -112.6075 289° West 412 474 36,000  Level Salt Lake Center
Tue 01:35:09 AM 43.2653 -112.7747 288° West 412 474 36,000  Level Salt Lake Center
Tue 01:36:09 AM 43.2981 -112.9186 287° West 412 474 36,000  Level Salt Lake Center
Tue 01:37:10 AM 43.3319 -113.0622 288° West 414 476 36,000  Level Salt Lake Center
Tue 01:38:11 AM 43.3714 -113.2311 288° West 416 479 36,000  Level Salt Lake Center
Tue 01:39:11 AM 43.4044 -113.3758 287° West 415 478 36,000  Level Salt Lake Center
Tue 01:40:12 AM 43.4367 -113.5211 287° West 415 478 36,000  Level Salt Lake Center
Tue 01:41:12 AM 43.4703 -113.6653 288° West 415 478 36,000  Level Salt Lake Center
Tue 01:42:13 AM 43.5086 -113.8381 287° West 413 475 36,000  Level Salt Lake Center
Tue 01:43:14 AM 43.5392 -113.9778 287° West 413 475 36,000  Level Salt Lake Center
Tue 01:44:14 AM 43.5761 -114.1456 287° West 412 474 36,000  Level Salt Lake Center
Tue 01:45:14 AM 43.6083 -114.2878 287° West 407 468 36,000  Level Salt Lake Center
Tue 01:46:15 AM 43.6392 -114.4325 286° West 410 472 36,000  Level Salt Lake Center
Tue 01:47:16 AM 43.6761 -114.6003 287° West 410 472 36,000  Level Salt Lake Center
Tue 01:48:16 AM 43.7075 -114.7456 287° West 412 474 36,000  Level Salt Lake Center
Tue 01:49:17 AM 43.7386 -114.8908 287° West 412 474 36,000  Level Salt Lake Center
Tue 01:50:17 AM 43.7681 -115.0356 286° West 409 471 36,000  Level Salt Lake Center
Tue 01:51:18 AM 43.8039 -115.2017 287° West 404 465 36,000  Level Salt Lake Center
Tue 01:52:18 AM 43.8328 -115.3422 286° West 398 458 36,000  Level Salt Lake Center
Tue 01:53:19 AM 43.8622 -115.4839 286° West 398 458 36,000  Level Salt Lake Center
Tue 01:54:19 AM 43.8967 -115.6489 286° West 398 458 36,000  Level Salt Lake Center
Tue 01:55:20 AM 43.9256 -115.7897 286° West 397 457 36,000  Level Salt Lake Center
Tue 01:56:20 AM 43.9536 -115.9306 286° West 395 455 36,000  Level Salt Lake Center
Tue 01:57:21 AM 43.9817 -116.0697 286° West 390 449 36,000  Level Salt Lake Center
Tue 01:58:21 AM 44.0150 -116.2347 286° West 394 453 36,000  Level Salt Lake Center
Tue 01:59:22 AM 44.0431 -116.3769 285° West 396 456 36,000  Level Salt Lake Center
Tue 02:00:23 AM 44.0708 -116.5192 285° West 396 456 36,000  Level Salt Lake Center
Tue 02:01:24 AM 44.1036 -116.6847 285° West 395 455 36,000  Level Salt Lake Center
Tue 02:02:24 AM 44.1319 -116.8272 286° West 398 458 36,000  Level Salt Lake Center
Tue 02:03:25 AM 44.1578 -116.9681 284° West 392 451 36,000  Level Salt Lake Center
Tue 02:04:26 AM 44.1897 -117.1317 285° West 391 450 36,000  Level Salt Lake Center
Tue 02:05:26 AM 44.2169 -117.2736 285° West 394 453 36,000  Level Salt Lake Center
Tue 02:06:27 AM 44.2428 -117.4150 284° West 393 452 36,000  Level Salt Lake Center
Tue 02:07:27 AM 44.2697 -117.5589 285° West 399 459 36,000  Level Salt Lake Center
Tue 02:08:28 AM 44.3006 -117.7264 284° West 398 458 36,000  Level Salt Lake Center
Tue 02:09:28 AM 44.3275 -117.8697 285° West 398 458 36,000  Level Salt Lake Center
Tue 02:10:29 AM 44.3531 -118.0142 284° West 401 461 36,000  Level Salt Lake Center
Tue 02:11:16 AM 44.3756 -118.1333 285° West 400 460 36,000  Level Seattle Center
Tue 02:12:16 AM 44.4006 -118.2756 284° West 400 460 36,000  Level Seattle Center
Tue 02:13:17 AM 44.4275 -118.4233 284° West 393 452 36,000  Level Seattle Center
Tue 02:14:17 AM 44.4536 -118.5703 284° West 391 450 36,000  Level Seattle Center
Tue 02:15:18 AM 44.4800 -118.7183 284° West 392 451 36,000  Level Seattle Center
Tue 02:16:18 AM 44.5103 -118.8650 286° West 393 452 36,000  Level Seattle Center
Tue 02:17:18 AM 44.5669 -119.0006 300° West 405 466 36,000  Level Seattle Center
Tue 02:18:19 AM 44.6222 -119.1372 300° West 404 465 36,000  Level Seattle Center
Tue 02:19:19 AM 44.6906 -119.3028 300° West 408 470 36,000  Level Seattle Center
Tue 02:21:00 AM 44.7797 -119.5008 302° West  Level FlightAware Approximate
Tue 02:22:20 AM 44.8589 -119.7281 298° West 417 480 36,000  Level Seattle Center
Tue 02:23:21 AM 44.9122 -119.8631 299° West 414 476 36,000  Level Seattle Center
Tue 02:24:21 AM 44.9672 -120.0031 299° West 411 473 36,000 -324 Level Seattle Center
Tue 02:26:00 AM 45.0658 -120.2316 305° West  Level FlightAware Approximate
Tue 02:27:22 AM 45.1325 -120.4281 305° West 417 480 34,700  Level Seattle Center
Tue 02:28:00 AM 45.1643 -120.4980 298° West  Level FlightAware Approximate
Tue 02:28:22 AM 45.1886 -120.5744 299° West 423 487 31,700  Level Seattle Center
Tue 02:29:23 AM 45.2458 -120.7239 299° West 429 494 28,800 -2,727 Descending Seattle Center
Tue 02:30:23 AM 45.3014 -120.8703 298° West 422 486 26,200 -2,600 Descending Seattle Center
Tue 02:31:23 AM 45.3550 -121.0119 298° West 409 471 23,600 -2,529 Descending Seattle Center
Tue 02:32:24 AM 45.4072 -121.1486 299° West 393 452 21,100 -1,636 Descending Seattle Center
Tue 02:33:24 AM 45.4364 -121.2803 288° West 345 397 20,300 -900 Descending Seattle Center
Tue 02:34:24 AM 45.4519 -121.3983 281° West 305 351 19,300 -1,438 Descending Seattle Center
Tue 02:35:00 AM 45.4661 -121.4867 283° West 294 338 18,000 -1,600 Descending Seattle Center
Tue 02:35:24 AM 45.4644 -121.5119 265° West 293 337 17,700 -2,000 Descending Seattle Center
Tue 02:36:00 AM 45.4783 -121.5958 283° West 281 323 16,000 -2,164 Descending Seattle Center
Tue 02:36:25 AM 45.4783 -121.6200 270° West 281 323 15,500 -1,970 Descending Seattle Center
Tue 02:37:07 AM 45.4928 -121.7164 282° West 267 307 13,800 -2,000 Descending Seattle Center
Tue 02:37:25 AM 45.4950 -121.7442 277° West 268 308 13,500 -982 Descending Seattle Center
Tue 02:38:02 AM 45.5247 -121.7956 310° West 256 295 12,900 -900 Descending Seattle Center
Tue 02:38:25 AM 45.5364 -121.8239 300° West 248 285 12,600 -800 Descending Seattle Center
Tue 02:39:02 AM 45.5606 -121.8733 305° West 225 259 12,100 -984 Descending Seattle Center
Tue 02:39:26 AM 45.5728 -121.8967 307° West 227 261 11,600 -1,377 Descending Seattle Center
Tue 02:40:03 AM 45.5969 -121.9444 306° West 219 252 10,700 -1,300 Descending Seattle Center
Tue 02:40:26 AM 45.6036 -121.9606 301° West 220 253 10,300 -1,300 Descending Seattle Center
Tue 02:41:03 AM 45.6311 -122.0139 306° West 220 253 9,400 -1,300 Descending Seattle Center
Tue 02:41:26 AM 45.6367 -122.0317 294° West 219 252 9,000 -1,180 Descending Seattle Center
Tue 02:42:04 AM 45.6519 -122.0947 289° West 206 237 8,200 -1,200 Descending Seattle Center
Tue 02:42:26 AM 45.6522 -122.1128 271° West 216 249 7,800 -1,222 Descending Seattle Center
Tue 02:42:58 AM 45.6608 -122.1686 282° West 213 245 7,100 -787 Descending Seattle Center
Tue 02:43:27 AM 45.6625 -122.1950 275° West 212 244 7,000 -393 Descending Seattle Center
Tue 02:43:59 AM 45.6711 -122.2508 282° West 213 245 6,700 -900 Descending Seattle Center
Tue 02:44:27 AM 45.6744 -122.2778 280° West 213 245 6,100 -1,279 Descending Seattle Center
Tue 02:45:00 AM 45.6578 -122.3244 243° Southwest 216 249 5,400 -1,000 Descending Seattle Center
Tue 02:45:27 AM 45.6375 -122.3206 172° South 221 254 5,100 -667 Descending Seattle Center
Tue 02:45:54 AM 45.6067 -122.3178 176° South 188 216 4,800 -700 Descending Seattle Center
Tue 02:46:27 AM 45.5853 -122.3153 175° South 197 227 4,400 -984 Descending Seattle Center
Tue 02:46:55 AM 45.5583 -122.3256 195° South 175 201 3,800 -1,082 Descending Seattle Center
Tue 02:47:28 AM 45.5389 -122.3331 195° South 181 208 3,300 -778 Descending Seattle Center
Tue 02:47:49 AM 45.5206 -122.3533 218° Southwest 168 193 3,100 -400 Descending Seattle Center
Tue 02:48:28 AM 45.5186 -122.3831 265° West 166 191 2,900 -308 Descending Seattle Center

Login

Don't have an account? Register now (free) for customized features, flight alerts, and more!